Time;durP1;ratioP1;P1;durP2;ratioP2;P2;SDS_P1;SDS_P2;PMS_P1;PMS_P2;Temp;Humidity;BMP_temperature;BMP_pressure;BME280_temperature;BME280_humidity;BME280_pressure;Samples;Min_cycle;Max_cycle;Signal;HPM_P1;HPM_P2
2023/06/27 00:02:22;;;;;;;3.38;1.30;;;20.90;70.30;;;;;;4959155;28;20018;-85
2023/06/27 00:04:48;;;;;;;3.33;1.30;;;20.90;70.30;;;;;;4978772;28;20058;-85
2023/06/27 00:07:13;;;;;;;6.32;1.52;;;20.90;70.10;;;;;;4961459;28;20019;-85
2023/06/27 00:09:39;;;;;;;4.47;1.45;;;20.90;70.20;;;;;;4994616;28;20503;-85
2023/06/27 00:12:08;;;;;;;3.92;1.50;;;20.90;70.20;;;;;;4994390;28;20063;-84
2023/06/27 00:14:36;;;;;;;5.53;1.50;;;20.90;70.10;;;;;;4988026;28;20035;-84
2023/06/27 00:17:04;;;;;;;4.25;1.27;;;20.90;70.20;;;;;;4995505;28;20026;-84
2023/06/27 00:19:31;;;;;;;4.13;1.30;;;20.90;70.10;;;;;;4978072;28;20033;-84
2023/06/27 00:21:56;;;;;;;4.03;1.13;;;20.90;70.20;;;;;;4978011;28;20037;-85
2023/06/27 00:24:23;;;;;;;3.58;1.20;;;20.90;70.10;;;;;;4975997;28;20482;-84
2023/06/27 00:26:49;;;;;;;3.33;1.50;;;20.90;70.20;;;;;;4990162;28;20149;-85
2023/06/27 00:29:14;;;;;;;5.80;1.75;;;20.80;70.00;;;;;;4995681;28;20518;-85
2023/06/27 00:31:40;;;;;;;4.57;1.50;;;20.90;70.00;;;;;;4995304;28;20022;-85
2023/06/27 00:34:05;;;;;;;3.60;1.33;;;20.80;70.00;;;;;;4974929;28;20031;-85
2023/06/27 00:36:31;;;;;;;2.92;1.40;;;20.80;69.90;;;;;;4973318;28;20030;-83
2023/06/27 00:38:56;;;;;;;5.93;1.50;;;20.80;69.90;;;;;;4974609;28;20022;-85
2023/06/27 00:41:21;;;;;;;2.78;1.20;;;20.80;69.90;;;;;;4977752;28;20018;-85
2023/06/27 00:43:47;;;;;;;4.78;1.58;;;20.80;70.00;;;;;;4976168;28;20120;-84
2023/06/27 00:46:25;;;;;;;4.20;1.50;;;20.80;70.00;;;;;;4984395;28;20039;-84
2023/06/27 00:48:51;;;;;;;3.95;1.48;;;20.80;70.00;;;;;;4965855;28;20793;-85
2023/06/27 00:51:17;;;;;;;5.45;1.67;;;20.80;70.00;;;;;;4995152;28;20034;-85
2023/06/27 00:53:42;;;;;;;3.55;1.35;;;20.80;69.90;;;;;;4992068;28;20022;-85
2023/06/27 00:56:08;;;;;;;3.22;1.40;;;20.80;70.00;;;;;;4977101;28;20038;-85
2023/06/27 00:58:34;;;;;;;5.65;1.38;;;20.80;70.00;;;;;;4977183;28;20031;-85
2023/06/27 01:01:00;;;;;;;3.83;1.20;;;20.70;69.90;;;;;;4994872;28;20395;-85
2023/06/27 01:03:32;;;;;;;3.60;1.23;;;20.70;69.90;;;;;;4976230;28;20088;-85
2023/06/27 01:06:01;;;;;;;4.57;1.42;;;20.70;70.00;;;;;;4968404;28;20106;-85
2023/06/27 01:08:34;;;;;;;4.85;1.60;;;20.70;70.00;;;;;;4957792;28;20118;-85
2023/06/27 01:11:08;;;;;;;3.45;1.30;;;20.70;70.10;;;;;;4958046;28;20026;-84
2023/06/27 01:13:43;;;;;;;5.28;1.40;;;20.70;70.10;;;;;;4957912;28;20037;-85
2023/06/27 01:16:09;;;;;;;4.03;1.40;;;20.70;70.00;;;;;;4989676;28;20026;-85
2023/06/27 01:18:38;;;;;;;4.60;1.40;;;20.70;70.10;;;;;;4993064;28;20089;-84
2023/06/27 01:21:08;;;;;;;4.10;1.65;;;20.70;70.10;;;;;;4976995;28;20372;-85
2023/06/27 01:23:55;;;;;;;4.43;1.45;;;20.70;70.00;;;;;;4974996;28;20487;-85
2023/06/27 01:26:22;;;;;;;3.15;1.30;;;20.70;70.20;;;;;;4973013;28;20053;-86
2023/06/27 01:28:48;;;;;;;5.35;1.40;;;20.80;70.10;;;;;;4976536;28;20031;-85
2023/06/27 01:31:40;;;;;;;5.28;1.40;;;20.70;70.10;;;;;;4994335;28;20041;-85
2023/06/27 01:34:16;;;;;;;5.75;1.60;;;20.70;70.00;;;;;;4990883;28;20040;-85
2023/06/27 01:36:50;;;;;;;4.18;1.48;;;20.70;70.10;;;;;;4972699;28;20030;-85
2023/06/27 01:39:21;;;;;;;6.80;1.60;;;20.70;70.00;;;;;;4992848;28;20494;-84
2023/06/27 01:41:51;;;;;;;3.63;1.40;;;20.70;70.00;;;;;;4994061;28;20479;-85
2023/06/27 01:44:19;;;;;;;4.93;1.60;;;20.70;70.00;;;;;;4976090;28;20022;-85
2023/06/27 01:46:47;;;;;;;3.85;1.50;;;20.80;70.10;;;;;;4989133;28;20110;-86
2023/06/27 01:49:13;;;;;;;4.50;1.60;;;20.70;70.00;;;;;;4992652;28;20034;-84
2023/06/27 01:51:40;;;;;;;4.13;1.48;;;20.80;70.20;;;;;;4992570;28;20033;-85
2023/06/27 01:54:06;;;;;;;3.97;1.50;;;20.70;70.20;;;;;;4989877;28;20051;-85
2023/06/27 01:56:31;;;;;;;4.00;1.40;;;20.70;70.20;;;;;;4971938;28;20046;-84
2023/06/27 01:58:57;;;;;;;3.80;1.38;;;20.70;70.30;;;;;;4992390;28;20403;-85
2023/06/27 02:01:22;;;;;;;4.95;1.30;;;20.70;70.50;;;;;;4992639;28;20133;-85
2023/06/27 02:03:48;;;;;;;4.80;1.40;;;20.70;70.50;;;;;;4990370;28;20027;-85
2023/06/27 02:06:15;;;;;;;3.33;1.30;;;20.60;70.50;;;;;;4971827;28;20018;-82
2023/06/27 02:08:41;;;;;;;4.70;1.70;;;20.60;70.60;;;;;;4993469;28;20018;-85
2023/06/27 02:11:06;;;;;;;3.83;1.40;;;20.60;70.50;;;;;;4993232;28;20030;-85
2023/06/27 02:13:37;;;;;;;3.58;1.45;;;20.60;70.50;;;;;;4991061;28;20026;-85
2023/06/27 02:16:03;;;;;;;3.58;1.10;;;20.60;70.50;;;;;;4978340;28;20529;-85
2023/06/27 02:18:29;;;;;;;3.42;1.58;;;20.60;70.50;;;;;;4974336;28;20093;-85
2023/06/27 02:20:55;;;;;;;3.00;1.35;;;20.60;70.60;;;;;;4989345;23;20030;-84
2023/06/27 02:23:20;;;;;;;2.60;1.20;;;20.60;70.50;;;;;;4986869;28;20045;-84
2023/06/27 02:25:46;;;;;;;3.90;1.67;;;20.60;70.60;;;;;;4976774;28;20072;-85
2023/06/27 02:28:11;;;;;;;2.75;1.30;;;20.60;70.50;;;;;;4976869;28;20034;-85
2023/06/27 02:30:37;;;;;;;5.00;1.60;;;20.60;70.60;;;;;;4976949;28;20045;-85
2023/06/27 02:33:02;;;;;;;3.92;1.38;;;20.60;70.50;;;;;;4944685;28;20078;-85
2023/06/27 02:35:28;;;;;;;3.58;1.48;;;20.60;70.50;;;;;;4973208;28;20030;-86
2023/06/27 02:37:53;;;;;;;3.63;1.48;;;20.60;70.40;;;;;;4973912;28;20038;-85
2023/06/27 02:40:19;;;;;;;3.90;1.38;;;20.60;70.50;;;;;;4973098;28;20059;-85
2023/06/27 02:42:44;;;;;;;3.83;1.80;;;20.60;70.50;;;;;;4966760;28;20467;-85
2023/06/27 02:45:10;;;;;;;4.35;1.80;;;20.60;70.50;;;;;;4953655;28;20027;-85
2023/06/27 02:47:36;;;;;;;4.85;1.52;;;20.60;70.50;;;;;;4953316;29;20027;-84
2023/06/27 02:50:02;;;;;;;5.32;1.70;;;20.60;70.50;;;;;;4953960;29;20047;-85
2023/06/27 02:52:28;;;;;;;5.60;1.52;;;20.60;70.50;;;;;;4954110;28;20033;-84
2023/06/27 02:54:54;;;;;;;4.85;1.50;;;20.60;70.50;;;;;;4953497;29;20031;-85
2023/06/27 02:57:20;;;;;;;3.10;1.63;;;20.60;70.40;;;;;;4953196;29;20028;-85
2023/06/27 02:59:45;;;;;;;4.82;1.60;;;20.60;70.50;;;;;;4954928;29;20114;-84
2023/06/27 03:02:11;;;;;;;4.20;1.58;;;20.60;70.50;;;;;;4952803;28;20062;-85
2023/06/27 03:04:37;;;;;;;4.15;1.65;;;20.60;70.40;;;;;;4968001;28;20113;-85
2023/06/27 03:07:03;;;;;;;5.07;1.75;;;20.60;70.40;;;;;;4975445;28;20286;-85
2023/06/27 03:09:28;;;;;;;5.88;2.05;;;20.60;70.40;;;;;;4979031;28;20455;-85
2023/06/27 03:11:53;;;;;;;4.78;1.88;;;20.60;70.50;;;;;;4975892;28;20035;-85
2023/06/27 03:14:19;;;;;;;4.55;2.10;;;20.60;70.50;;;;;;4978275;28;20046;-85
2023/06/27 03:16:45;;;;;;;5.30;2.13;;;20.70;70.60;;;;;;4962145;28;20030;-85
2023/06/27 03:19:10;;;;;;;6.05;2.13;;;20.60;70.50;;;;;;4978103;28;20034;-86
2023/06/27 03:21:36;;;;;;;5.07;1.92;;;20.60;70.60;;;;;;4977473;28;20026;-85
2023/06/27 03:24:01;;;;;;;6.00;1.83;;;20.60;70.70;;;;;;4973271;28;20456;-86
2023/06/27 03:26:28;;;;;;;4.82;1.83;;;20.60;70.70;;;;;;4962927;28;20031;-83
2023/06/27 03:28:54;;;;;;;4.93;1.75;;;20.60;70.80;;;;;;4960356;28;20540;-85
2023/06/27 03:31:20;;;;;;;5.07;2.30;;;20.60;70.90;;;;;;4956851;28;20588;-84
2023/06/27 03:33:46;;;;;;;6.07;2.10;;;20.60;70.90;;;;;;4963090;28;20038;-85
2023/06/27 03:36:12;;;;;;;6.50;2.00;;;20.60;71.00;;;;;;4960811;28;20038;-85
2023/06/27 03:38:37;;;;;;;5.72;2.08;;;20.50;71.00;;;;;;4959680;28;20491;-85
2023/06/27 03:41:03;;;;;;;4.00;1.83;;;20.50;71.00;;;;;;4974817;28;20023;-84
2023/06/27 03:43:28;;;;;;;4.95;2.05;;;20.60;71.10;;;;;;4962275;28;20105;-84
2023/06/27 03:45:54;;;;;;;4.68;1.90;;;20.50;71.00;;;;;;4963971;28;20503;-85
2023/06/27 03:48:19;;;;;;;4.68;2.08;;;20.50;71.10;;;;;;4974662;28;20034;-84
2023/06/27 03:50:45;;;;;;;5.18;2.15;;;20.50;71.10;;;;;;4957596;28;20582;-85
2023/06/27 03:53:10;;;;;;;4.28;1.80;;;20.50;71.10;;;;;;4952508;28;20039;-84
2023/06/27 03:55:38;;;;;;;4.90;1.90;;;20.50;71.10;;;;;;4958712;28;20031;-86
2023/06/27 03:58:03;;;;;;;5.38;2.05;;;20.50;71.20;;;;;;4965878;28;20031;-84
2023/06/27 04:00:29;;;;;;;5.65;2.13;;;20.50;71.20;;;;;;4964711;28;20039;-89
2023/06/27 04:02:55;;;;;;;5.28;1.90;;;20.40;71.20;;;;;;4953075;28;20027;-87
2023/06/27 04:05:20;;;;;;;9.07;2.50;;;20.50;71.30;;;;;;4955534;28;20023;-87
2023/06/27 04:07:46;;;;;;;7.65;2.30;;;20.50;71.00;;;;;;4978398;28;20029;-86
2023/06/27 04:10:11;;;;;;;8.82;2.40;;;20.80;70.30;;;;;;4979762;28;20078;-83
2023/06/27 04:12:37;;;;;;;9.43;2.50;;;20.40;69.60;;;;;;4958671;28;20514;-82
2023/06/27 04:15:03;;;;;;;12.52;2.97;;;20.40;69.40;;;;;;4961681;28;20035;-79
2023/06/27 04:17:29;;;;;;;10.45;2.58;;;20.40;69.50;;;;;;4977838;28;20035;-81
2023/06/27 04:19:54;;;;;;;13.65;2.88;;;20.50;69.70;;;;;;4974469;28;20027;-81
2023/06/27 04:22:19;;;;;;;13.20;2.15;;;20.50;69.80;;;;;;4953426;28;20031;-85
2023/06/27 04:24:45;;;;;;;9.43;2.28;;;20.40;70.00;;;;;;4958540;28;20118;-83
2023/06/27 04:27:10;;;;;;;7.45;2.30;;;20.50;69.40;;;;;;4975720;28;20031;-83
2023/06/27 04:29:37;;;;;;;7.65;2.13;;;20.50;69.40;;;;;;4975807;28;20031;-83
2023/06/27 04:32:03;;;;;;;11.23;2.60;;;20.50;69.60;;;;;;4970566;28;20041;-84
2023/06/27 04:34:28;;;;;;;7.10;2.08;;;20.50;69.80;;;;;;4972899;28;20031;-83
2023/06/27 04:36:54;;;;;;;7.93;2.22;;;20.50;70.10;;;;;;4971002;28;20034;-83
2023/06/27 04:39:20;;;;;;;6.15;2.30;;;20.60;70.40;;;;;;4956934;28;20027;-84
2023/06/27 04:41:45;;;;;;;7.00;2.20;;;20.60;70.40;;;;;;4950890;28;20384;-84
2023/06/27 04:44:11;;;;;;;6.53;2.25;;;20.60;70.60;;;;;;4953480;29;20069;-83
2023/06/27 04:46:36;;;;;;;4.55;2.10;;;20.60;70.80;;;;;;4950959;28;20518;-83
2023/06/27 04:49:02;;;;;;;5.88;1.85;;;20.60;71.00;;;;;;4973007;28;20045;-83
2023/06/27 04:51:28;;;;;;;5.85;2.25;;;20.60;71.10;;;;;;4952336;28;20031;-83
2023/06/27 04:53:55;;;;;;;5.15;2.00;;;20.50;71.20;;;;;;4965522;28;20058;-83
2023/06/27 04:56:20;;;;;;;5.60;2.20;;;20.50;71.30;;;;;;4973673;28;20030;-83
2023/06/27 04:58:46;;;;;;;5.63;1.88;;;20.50;71.40;;;;;;4974108;28;20046;-83
2023/06/27 05:01:12;;;;;;;5.93;2.28;;;20.50;71.60;;;;;;4952849;28;20083;-84
2023/06/27 05:03:37;;;;;;;6.95;2.22;;;20.50;71.70;;;;;;4955935;28;20037;-82
2023/06/27 05:06:06;;;;;;;6.60;2.20;;;20.50;71.60;;;;;;4971983;28;20113;-83
2023/06/27 05:08:33;;;;;;;6.22;2.17;;;20.50;71.70;;;;;;4971987;28;20440;-85
2023/06/27 05:10:58;;;;;;;6.50;2.30;;;20.50;71.80;;;;;;4972211;28;20035;-84
2023/06/27 05:13:24;;;;;;;6.65;2.42;;;20.50;71.80;;;;;;4949344;29;20596;-83
2023/06/27 05:15:49;;;;;;;4.60;2.05;;;20.50;71.90;;;;;;4954279;29;20035;-82
2023/06/27 05:18:15;;;;;;;6.43;2.50;;;20.50;71.90;;;;;;4954275;29;20038;-85
2023/06/27 05:20:44;;;;;;;7.57;2.33;;;20.50;71.90;;;;;;4953663;28;20451;-83
2023/06/27 05:23:10;;;;;;;8.35;2.30;;;20.50;72.00;;;;;;4944650;28;20035;-83
2023/06/27 05:25:36;;;;;;;6.68;2.53;;;20.50;72.00;;;;;;4977821;28;20027;-82
2023/06/27 05:28:02;;;;;;;41.85;5.65;;;20.50;72.00;;;;;;4959253;28;20031;-83
2023/06/27 05:30:28;;;;;;;29.98;5.13;;;20.60;72.00;;;;;;4959715;28;20034;-83
2023/06/27 05:32:54;;;;;;;20.60;3.55;;;20.60;72.10;;;;;;4957726;28;20084;-83
2023/06/27 05:35:21;;;;;;;22.08;3.22;;;20.60;73.40;;;;;;4957430;29;20027;-83
2023/06/27 05:37:46;;;;;;;19.45;3.33;;;20.70;72.60;;;;;;4955621;29;20392;-83
2023/06/27 05:40:12;;;;;;;13.40;2.75;;;20.80;72.40;;;;;;4939441;29;20023;-83
2023/06/27 05:42:39;;;;;;;10.13;2.70;;;20.80;72.40;;;;;;4958084;28;20030;-84
2023/06/27 05:45:05;;;;;;;14.50;3.08;;;20.90;72.30;;;;;;4975762;28;20547;-84
2023/06/27 05:47:30;;;;;;;12.73;2.50;;;20.90;72.50;;;;;;4958121;28;20519;-84
2023/06/27 05:49:56;;;;;;;17.17;3.15;;;21.00;73.10;;;;;;4958287;28;20034;-84
2023/06/27 05:52:22;;;;;;;11.05;2.78;;;21.10;73.10;;;;;;4968896;28;20055;-83
2023/06/27 05:54:48;;;;;;;8.95;2.72;;;21.10;73.80;;;;;;4954589;29;20038;-83
2023/06/27 05:57:14;;;;;;;9.02;3.00;;;21.20;76.60;;;;;;4954824;29;20023;-84
2023/06/27 05:59:39;;;;;;;13.20;2.45;;;21.30;76.80;;;;;;4956082;29;20035;-83
2023/06/27 06:02:05;;;;;;;11.52;2.65;;;21.40;77.60;;;;;;4942723;28;20073;-84
2023/06/27 06:04:30;;;;;;;10.23;2.38;;;21.50;77.30;;;;;;4957399;28;20498;-83
2023/06/27 06:06:58;;;;;;;8.48;2.22;;;21.60;77.10;;;;;;4957740;28;20058;-83
2023/06/27 06:09:24;;;;;;;7.82;2.13;;;21.70;76.90;;;;;;4975546;28;20172;-83
2023/06/27 06:11:50;;;;;;;6.95;2.00;;;21.90;76.60;;;;;;4956100;28;20050;-83
2023/06/27 06:14:15;;;;;;;10.98;2.28;;;21.90;76.40;;;;;;4967395;28;20121;-83
2023/06/27 06:16:41;;;;;;;10.07;2.65;;;22.00;76.30;;;;;;4974521;28;20480;-83
2023/06/27 06:19:07;;;;;;;12.55;2.72;;;22.00;76.50;;;;;;4957346;28;20061;-84
2023/06/27 06:21:33;;;;;;;11.20;2.42;;;22.10;77.80;;;;;;4969715;28;20073;-83
2023/06/27 06:23:59;;;;;;;8.88;2.00;;;22.00;77.60;;;;;;4963673;28;20028;-84
2023/06/27 06:26:24;;;;;;;11.05;2.90;;;22.10;77.70;;;;;;4953513;29;20019;-83
2023/06/27 06:28:50;;;;;;;9.32;2.28;;;22.10;77.70;;;;;;4953824;29;20062;-84
2023/06/27 06:31:16;;;;;;;11.38;3.00;;;22.10;77.50;;;;;;4960180;28;20027;-85
2023/06/27 06:33:46;;;;;;;10.13;2.55;;;22.10;77.30;;;;;;4964064;28;20030;-85
2023/06/27 06:36:12;;;;;;;12.55;2.15;;;22.20;77.80;;;;;;4963771;28;20027;-83
2023/06/27 06:38:38;;;;;;;10.13;2.38;;;22.30;76.90;;;;;;4981098;28;20026;-84
2023/06/27 06:41:04;;;;;;;8.88;2.45;;;22.30;76.80;;;;;;4961727;28;20027;-84
2023/06/27 06:43:30;;;;;;;8.68;2.35;;;22.40;76.40;;;;;;4962788;28;20034;-84
2023/06/27 06:45:55;;;;;;;11.23;2.90;;;22.40;76.10;;;;;;4978941;28;20031;-84
2023/06/27 06:48:21;;;;;;;8.63;2.50;;;22.40;75.80;;;;;;4962671;28;20026;-84
2023/06/27 06:50:47;;;;;;;8.40;2.20;;;22.50;75.40;;;;;;4961292;28;20030;-85
2023/06/27 06:53:13;;;;;;;8.73;2.53;;;22.40;75.60;;;;;;4972184;28;20042;-83
2023/06/27 06:55:38;;;;;;;8.02;2.13;;;22.50;74.90;;;;;;4977746;28;20034;-84
2023/06/27 06:58:04;;;;;;;8.18;2.17;;;22.50;74.90;;;;;;4977254;28;20027;-85
2023/06/27 07:00:30;;;;;;;8.93;2.60;;;22.40;75.00;;;;;;4961322;28;20031;-83
2023/06/27 07:02:55;;;;;;;8.32;2.28;;;22.30;75.30;;;;;;4966439;28;20031;-83
2023/06/27 07:05:21;;;;;;;8.10;2.28;;;22.30;75.50;;;;;;4977050;28;20031;-84
2023/06/27 07:07:46;;;;;;;9.15;2.20;;;22.30;75.60;;;;;;4976444;28;20026;-85
2023/06/27 07:10:12;;;;;;;8.40;2.42;;;22.20;75.70;;;;;;4978347;28;20383;-83
2023/06/27 07:12:37;;;;;;;7.07;2.40;;;22.20;75.80;;;;;;4949266;29;20035;-83
2023/06/27 07:15:03;;;;;;;7.45;2.30;;;22.20;75.80;;;;;;4959494;28;20062;-83
2023/06/27 07:17:28;;;;;;;8.07;2.10;;;22.20;75.90;;;;;;4975701;28;20042;-85
2023/06/27 07:19:54;;;;;;;6.07;1.90;;;22.20;75.80;;;;;;4977705;28;20027;-85
2023/06/27 07:22:19;;;;;;;10.82;2.60;;;22.20;75.70;;;;;;4973942;28;20031;-85
2023/06/27 07:24:45;;;;;;;6.75;1.90;;;22.20;75.70;;;;;;4963601;28;20030;-85
2023/06/27 07:27:10;;;;;;;7.22;2.42;;;22.20;75.70;;;;;;4980192;28;20368;-85
2023/06/27 07:29:36;;;;;;;6.10;2.00;;;22.20;75.70;;;;;;4981145;28;20031;-84
2023/06/27 07:32:02;;;;;;;11.52;2.78;;;22.20;75.60;;;;;;4957722;28;20510;-84
2023/06/27 07:34:27;;;;;;;4.95;1.90;;;22.20;75.60;;;;;;4962647;28;20037;-84
2023/06/27 07:36:53;;;;;;;6.43;2.35;;;22.20;75.60;;;;;;4961931;28;20034;-84
2023/06/27 07:39:19;;;;;;;5.78;1.80;;;22.20;75.60;;;;;;4961454;28;20514;-84
2023/06/27 07:41:44;;;;;;;7.10;1.90;;;22.20;75.70;;;;;;4954068;28;20396;-85
2023/06/27 07:44:10;;;;;;;7.10;1.90;;;22.20;75.80;;;;;;4979568;28;20591;-84
2023/06/27 07:46:35;;;;;;;5.93;2.22;;;22.20;75.70;;;;;;4977161;28;20042;-84
2023/06/27 07:49:02;;;;;;;6.78;2.28;;;22.10;75.60;;;;;;4961170;28;20035;-84
2023/06/27 07:51:27;;;;;;;6.72;1.98;;;22.20;75.70;;;;;;4972416;28;20444;-84
2023/06/27 07:53:54;;;;;;;5.72;2.00;;;22.10;75.60;;;;;;4960541;28;20027;-85
2023/06/27 07:56:20;;;;;;;7.50;2.17;;;22.10;75.70;;;;;;4960100;28;20506;-83
2023/06/27 07:58:45;;;;;;;6.13;1.90;;;22.10;75.60;;;;;;4959996;28;20110;-84
2023/06/27 08:01:11;;;;;;;6.85;2.03;;;22.10;75.70;;;;;;4958408;28;20377;-85
2023/06/27 08:03:37;;;;;;;5.32;1.90;;;22.00;75.70;;;;;;4955918;29;20061;-84
2023/06/27 08:06:05;;;;;;;8.60;2.45;;;22.10;75.80;;;;;;4959657;28;20575;-83
2023/06/27 08:08:31;;;;;;;6.97;2.70;;;22.10;75.80;;;;;;4977371;28;20037;-84
2023/06/27 08:10:57;;;;;;;6.35;2.20;;;22.10;75.70;;;;;;4977509;28;20038;-84
2023/06/27 08:13:23;;;;;;;5.40;2.08;;;22.10;75.70;;;;;;4958779;29;20027;-84
2023/06/27 08:15:48;;;;;;;6.32;1.98;;;22.10;75.70;;;;;;4958592;28;20042;-83
2023/06/27 08:18:14;;;;;;;5.20;1.90;;;22.10;75.60;;;;;;4977916;28;20437;-83
2023/06/27 08:20:39;;;;;;;9.77;2.13;;;22.10;75.80;;;;;;4977895;28;20030;-83
2023/06/27 08:23:07;;;;;;;7.28;2.28;;;22.10;75.80;;;;;;4979393;23;20146;-88
2023/06/27 08:25:33;;;;;;;5.00;1.75;;;22.10;75.80;;;;;;4939962;29;20024;-87
2023/06/27 08:27:58;;;;;;;5.53;2.20;;;22.10;75.90;;;;;;4939756;29;20112;-88
2023/06/27 08:30:26;;;;;;;5.28;2.05;;;22.10;76.30;;;;;;4939850;29;20027;-88
2023/06/27 08:32:53;;;;;;;5.75;1.80;;;22.10;76.00;;;;;;4926679;29;20031;-88
2023/06/27 08:35:18;;;;;;;4.38;1.73;;;22.10;75.90;;;;;;4924773;29;20405;-88
2023/06/27 08:37:43;;;;;;;6.20;1.92;;;22.10;75.80;;;;;;4936451;29;20102;-88
2023/06/27 08:40:09;;;;;;;5.35;1.60;;;22.10;75.70;;;;;;4936253;29;20055;-88
2023/06/27 08:42:35;;;;;;;5.30;1.80;;;22.10;75.60;;;;;;4935562;29;20026;-88
2023/06/27 08:45:01;;;;;;;4.20;1.50;;;22.10;75.60;;;;;;4926930;29;20028;-88
2023/06/27 08:47:29;;;;;;;4.70;1.63;;;22.10;75.60;;;;;;4936320;29;20071;-88
2023/06/27 08:50:07;;;;;;;6.80;2.00;;;22.10;75.60;;;;;;4936318;29;20450;-88
2023/06/27 08:52:38;;;;;;;5.63;1.80;;;22.10;75.50;;;;;;4936951;29;20484;-87
2023/06/27 08:55:06;;;;;;;5.20;1.75;;;22.10;75.50;;;;;;4937428;29;20032;-88
2023/06/27 08:57:34;;;;;;;3.95;1.60;;;22.10;75.50;;;;;;4935838;29;20574;-87
2023/06/27 09:00:11;;;;;;;5.55;1.70;;;22.10;75.40;;;;;;4936010;29;20027;-87
2023/06/27 09:02:38;;;;;;;6.05;1.80;;;22.20;75.40;;;;;;4933974;29;20031;-88
2023/06/27 09:05:05;;;;;;;3.88;1.50;;;22.10;75.30;;;;;;4920109;29;20171;-88
2023/06/27 09:07:33;;;;;;;4.22;1.70;;;22.10;75.30;;;;;;4919758;29;20036;-88
2023/06/27 09:09:59;;;;;;;4.68;1.70;;;22.10;75.50;;;;;;4935901;29;20031;-88
2023/06/27 09:12:27;;;;;;;4.00;1.75;;;22.00;75.50;;;;;;4935163;29;20015;-88
2023/06/27 09:14:53;;;;;;;4.20;1.60;;;22.10;75.60;;;;;;4919826;29;20027;-88
2023/06/27 09:17:19;;;;;;;3.97;1.67;;;22.00;75.80;;;;;;4935451;29;20079;-88
2023/06/27 09:19:44;;;;;;;5.95;1.85;;;22.00;75.80;;;;;;4936413;29;20115;-87
2023/06/27 09:22:10;;;;;;;6.13;1.90;;;22.00;75.80;;;;;;4934354;29;20123;-88
2023/06/27 09:24:40;;;;;;;4.95;1.52;;;22.00;75.80;;;;;;4935388;29;20433;-88
2023/06/27 09:27:07;;;;;;;5.13;1.70;;;22.00;75.70;;;;;;4935574;29;20110;-87
2023/06/27 09:29:33;;;;;;;5.03;1.80;;;22.00;75.80;;;;;;4936734;29;20035;-88
2023/06/27 09:32:06;;;;;;;4.13;1.60;;;22.00;75.90;;;;;;4934763;29;20043;-88
2023/06/27 09:34:32;;;;;;;6.05;1.98;;;22.00;75.80;;;;;;4926844;29;20024;-87
2023/06/27 09:37:01;;;;;;;5.30;1.83;;;21.90;75.80;;;;;;4919339;29;20460;-88
2023/06/27 09:39:27;;;;;;;3.58;1.50;;;22.00;76.10;;;;;;4936453;29;20035;-88
2023/06/27 09:41:52;;;;;;;3.85;1.65;;;21.90;76.00;;;;;;4914554;29;20028;-88
2023/06/27 09:44:20;;;;;;;4.68;1.70;;;21.80;75.90;;;;;;4908872;29;20047;-88
2023/06/27 09:46:48;;;;;;;3.78;1.55;;;21.80;76.10;;;;;;4924030;29;20019;-87
2023/06/27 09:49:14;;;;;;;3.58;1.67;;;21.90;76.10;;;;;;4935020;29;20516;-88
2023/06/27 09:51:43;;;;;;;3.72;1.60;;;21.90;76.10;;;;;;4934972;29;20043;-88
2023/06/27 09:54:11;;;;;;;4.78;1.70;;;21.80;76.40;;;;;;4916043;29;20036;-88
2023/06/27 09:56:36;;;;;;;4.32;1.70;;;21.80;76.50;;;;;;4915839;29;20028;-88
2023/06/27 09:59:12;;;;;;;4.28;1.50;;;21.80;76.40;;;;;;4915763;29;20397;-88
2023/06/27 10:01:39;;;;;;;4.93;1.60;;;21.90;76.20;;;;;;4918227;29;20032;-88
2023/06/27 10:04:06;;;;;;;3.78;1.58;;;21.90;76.00;;;;;;4926281;29;20032;-88
2023/06/27 10:06:32;;;;;;;4.05;1.60;;;22.00;75.90;;;;;;4936049;29;20023;-88
2023/06/27 10:08:58;;;;;;;4.30;1.42;;;21.90;75.80;;;;;;4934445;29;20083;-88
2023/06/27 10:11:24;;;;;;;4.40;1.58;;;22.00;75.80;;;;;;4918433;29;20111;-88
2023/06/27 10:13:51;;;;;;;3.75;1.50;;;22.00;75.70;;;;;;4917606;29;20027;-87
2023/06/27 10:16:20;;;;;;;4.32;1.67;;;22.00;75.60;;;;;;4918930;29;20439;-87
2023/06/27 10:18:47;;;;;;;5.65;1.50;;;22.00;75.70;;;;;;4934521;29;20034;-87
2023/06/27 10:21:14;;;;;;;4.65;1.58;;;22.00;75.70;;;;;;4934631;29;20485;-87
2023/06/27 10:23:42;;;;;;;3.72;1.65;;;22.00;75.60;;;;;;4932698;29;20556;-88
2023/06/27 10:26:11;;;;;;;4.53;1.60;;;22.00;75.70;;;;;;4935692;29;20082;-87
2023/06/27 10:28:36;;;;;;;3.53;1.40;;;22.00;75.70;;;;;;4934425;29;20108;-88
2023/06/27 10:31:05;;;;;;;4.60;1.50;;;21.90;75.70;;;;;;4934497;29;20052;-88
2023/06/27 10:33:32;;;;;;;2.75;1.30;;;21.90;75.90;;;;;;4919208;29;20059;-88
2023/06/27 10:36:09;;;;;;;4.22;1.52;;;21.80;75.80;;;;;;4918419;29;20050;-88
2023/06/27 10:38:39;;;;;;;4.43;1.50;;;21.90;76.00;;;;;;4918339;29;20039;-88
2023/06/27 10:41:06;;;;;;;3.40;1.40;;;21.90;76.10;;;;;;4935492;29;20047;-89
2023/06/27 10:43:36;;;;;;;3.63;1.40;;;21.90;76.10;;;;;;4933877;29;20361;-88
2023/06/27 10:46:11;;;;;;;3.30;1.38;;;21.90;75.90;;;;;;4935547;29;20020;-87
2023/06/27 10:48:50;;;;;;;3.47;1.40;;;21.90;76.50;;;;;;4935394;29;20039;-88
2023/06/27 10:51:21;;;;;;;3.33;1.67;;;21.90;76.00;;;;;;4934287;29;20063;-87
2023/06/27 10:54:09;;;;;;;4.47;1.65;;;21.90;76.20;;;;;;4916821;29;20066;-88
2023/06/27 10:56:39;;;;;;;2.72;1.45;;;21.90;76.30;;;;;;4934122;29;20111;-88
2023/06/27 10:59:13;;;;;;;3.97;1.45;;;21.80;76.30;;;;;;4918260;29;20027;-88
2023/06/27 11:01:52;;;;;;;2.97;1.25;;;21.80;76.30;;;;;;4934784;29;20142;-88
2023/06/27 11:04:25;;;;;;;2.97;1.52;;;21.80;76.50;;;;;;4917786;29;20028;-88
2023/06/27 11:07:00;;;;;;;3.95;1.30;;;21.80;76.60;;;;;;4929619;29;20079;-88
2023/06/27 11:09:28;;;;;;;2.95;1.40;;;21.80;76.50;;;;;;4933915;29;20034;-88
2023/06/27 11:11:55;;;;;;;3.17;1.40;;;21.80;77.10;;;;;;4933633;29;20506;-88
2023/06/27 11:14:37;;;;;;;3.45;1.48;;;21.80;76.60;;;;;;4930742;29;20471;-88
2023/06/27 11:17:03;;;;;;;3.38;1.60;;;21.80;76.70;;;;;;4925522;29;20024;-89
2023/06/27 11:19:34;;;;;;;2.78;1.30;;;21.80;76.80;;;;;;4934078;29;20508;-88
2023/06/27 11:22:01;;;;;;;3.17;1.63;;;21.80;76.80;;;;;;4933576;29;20040;-88
2023/06/27 11:24:29;;;;;;;3.92;1.48;;;21.80;76.70;;;;;;4925530;29;20032;-88
2023/06/27 11:26:55;;;;;;;3.90;1.70;;;21.80;76.60;;;;;;4933684;29;20024;-88
2023/06/27 11:29:21;;;;;;;2.70;1.30;;;21.90;76.60;;;;;;4933957;29;20034;-87
2023/06/27 11:31:47;;;;;;;3.25;1.40;;;21.90;76.50;;;;;;4917425;29;20028;-88
2023/06/27 11:34:14;;;;;;;2.97;1.40;;;21.90;76.40;;;;;;4926497;29;20404;-87
2023/06/27 11:36:40;;;;;;;3.55;1.40;;;21.90;76.40;;;;;;4917753;29;20035;-88
2023/06/27 11:39:06;;;;;;;2.90;1.45;;;21.90;76.20;;;;;;4933715;29;20374;-88
2023/06/27 11:41:31;;;;;;;4.30;1.60;;;22.00;76.20;;;;;;4933212;29;20032;-88
2023/06/27 11:43:57;;;;;;;3.85;1.23;;;21.90;76.00;;;;;;4935699;29;20070;-88
2023/06/27 11:46:23;;;;;;;3.17;1.35;;;22.00;76.00;;;;;;4921677;29;20460;-88
2023/06/27 11:48:49;;;;;;;2.70;1.30;;;22.00;75.90;;;;;;4921602;29;20028;-88
2023/06/27 11:51:14;;;;;;;3.38;1.48;;;22.00;75.90;;;;;;4921584;29;20028;-86
2023/06/27 11:53:50;;;;;;;3.22;1.30;;;22.00;76.00;;;;;;4937883;29;20043;-88
2023/06/27 11:56:17;;;;;;;4.30;1.70;;;22.00;76.00;;;;;;4938358;29;20393;-87
2023/06/27 11:58:46;;;;;;;3.13;1.52;;;21.90;76.10;;;;;;4937348;29;20062;-88
2023/06/27 12:01:14;;;;;;;2.75;1.30;;;21.90;76.10;;;;;;4937335;29;20082;-88
2023/06/27 12:03:45;;;;;;;3.22;1.30;;;22.00;76.30;;;;;;4935139;29;20032;-88
2023/06/27 12:06:24;;;;;;;2.78;1.25;;;21.90;76.30;;;;;;4921353;29;20031;-87
2023/06/27 12:08:50;;;;;;;2.92;1.40;;;21.90;76.40;;;;;;4921132;29;20031;-88
2023/06/27 12:11:15;;;;;;;4.68;1.45;;;21.90;76.20;;;;;;4938349;29;20665;-87
2023/06/27 12:13:41;;;;;;;2.70;1.30;;;21.90;76.40;;;;;;4925928;29;20032;-88
2023/06/27 12:16:22;;;;;;;3.42;1.48;;;21.90;76.30;;;;;;4938154;29;20039;-88
2023/06/27 12:18:48;;;;;;;2.60;1.30;;;21.90;76.40;;;;;;4920867;29;20034;-87
2023/06/27 12:21:14;;;;;;;2.95;1.42;;;21.90;76.60;;;;;;4936754;29;20024;-88
2023/06/27 12:23:39;;;;;;;2.40;1.20;;;21.80;76.60;;;;;;4925314;29;20028;-87
2023/06/27 12:26:05;;;;;;;4.57;1.55;;;21.80;76.60;;;;;;4936493;29;20110;-87
2023/06/27 12:28:31;;;;;;;2.97;1.33;;;21.80;76.70;;;;;;4936550;29;20099;-87
2023/06/27 12:30:57;;;;;;;3.53;1.40;;;21.90;76.70;;;;;;4937877;29;20284;-88
2023/06/27 12:33:23;;;;;;;3.33;1.40;;;21.90;76.90;;;;;;4927770;29;20042;-88
2023/06/27 12:35:49;;;;;;;2.55;1.20;;;21.80;76.70;;;;;;4921168;29;20386;-87
2023/06/27 12:38:14;;;;;;;3.58;1.33;;;21.80;76.80;;;;;;4936566;29;20034;-88
2023/06/27 12:40:40;;;;;;;2.92;1.30;;;21.80;76.90;;;;;;4936794;29;20074;-88
2023/06/27 12:43:06;;;;;;;2.65;1.20;;;21.80;76.90;;;;;;4932648;29;20047;-88
2023/06/27 12:45:32;;;;;;;3.03;1.48;;;21.80;77.00;;;;;;4920458;29;20032;-88